createdAt,value
2022-11-28T00:00:13.672Z,24.60
2022-11-28T00:02:43.612Z,24.60
2022-11-28T00:05:17.105Z,24.60
2022-11-28T00:07:46.632Z,24.60
2022-11-28T00:10:16.561Z,24.60
2022-11-28T00:12:45.652Z,24.60
2022-11-28T00:15:15.261Z,24.70
2022-11-28T00:17:44.445Z,24.70
2022-11-28T00:20:13.996Z,24.70
2022-11-28T00:22:46.351Z,24.80
2022-11-28T00:25:17.574Z,24.80
2022-11-28T00:27:46.699Z,24.80
2022-11-28T00:30:16.011Z,24.90
2022-11-28T00:32:47.709Z,25.00
2022-11-28T00:35:16.898Z,25.00
2022-11-28T00:37:48.368Z,25.00
2022-11-28T00:40:17.651Z,25.10
2022-11-28T00:42:46.792Z,25.10
2022-11-28T00:45:16.044Z,25.20
2022-11-28T00:47:45.136Z,25.20
2022-11-28T00:50:14.458Z,25.30
2022-11-28T00:52:43.525Z,25.30
2022-11-28T00:55:12.895Z,25.40
2022-11-28T00:57:42.103Z,25.40
2022-11-28T01:00:11.917Z,25.50
2022-11-28T01:02:41.124Z,25.50
2022-11-28T01:05:10.755Z,25.60
2022-11-28T01:07:43.364Z,25.60
2022-11-28T01:10:13.748Z,25.70
2022-11-28T01:12:42.895Z,25.80
2022-11-28T01:15:14.901Z,25.80
2022-11-28T01:17:44.085Z,25.90
2022-11-28T01:20:14.137Z,25.90
2022-11-28T01:22:43.350Z,26.00
2022-11-28T01:25:12.449Z,26.00
2022-11-28T01:27:46.421Z,26.10
2022-11-28T01:30:18.424Z,26.10
2022-11-28T01:32:53.300Z,26.20
2022-11-28T01:35:25.409Z,26.30
2022-11-28T01:37:56.701Z,26.40
2022-11-28T01:40:29.178Z,26.40
2022-11-28T01:43:04.159Z,26.50
2022-11-28T01:45:38.984Z,26.50
2022-11-28T01:48:13.161Z,26.60
2022-11-28T01:50:51.018Z,26.60
2022-11-28T01:53:23.693Z,26.60
2022-11-28T01:56:04.568Z,26.70
2022-11-28T01:58:37.682Z,26.70
2022-11-28T02:01:07.963Z,26.80
2022-11-28T02:03:52.235Z,26.80
2022-11-28T02:06:25.987Z,26.80
2022-11-28T02:08:57.485Z,26.90
2022-11-28T02:12:06.621Z,26.90
2022-11-28T02:15:22.015Z,27.00
2022-11-28T02:18:50.160Z,27.00
2022-11-28T02:21:37.615Z,27.10
2022-11-28T02:24:40.104Z,27.20
2022-11-28T02:27:39.958Z,27.20
2022-11-28T02:30:39.977Z,27.30
2022-11-28T02:33:56.307Z,27.40
2022-11-28T02:36:52.363Z,27.50
2022-11-28T02:40:04.901Z,27.50
2022-11-28T02:42:57.659Z,27.60
2022-11-28T02:45:53.821Z,27.60
2022-11-28T02:48:47.194Z,27.60
2022-11-28T02:51:39.923Z,27.70
2022-11-28T02:54:16.072Z,27.70
2022-11-28T02:56:57.453Z,27.80
2022-11-28T02:59:38.835Z,27.80
2022-11-28T03:02:29.788Z,27.90
2022-11-28T03:05:32.825Z,28.00
2022-11-28T03:08:45.109Z,28.10
2022-11-28T03:11:21.968Z,28.20
2022-11-28T03:14:11.225Z,28.20
2022-11-28T03:17:05.187Z,28.30
2022-11-28T03:19:43.082Z,28.50
2022-11-28T03:22:31.832Z,28.50
2022-11-28T03:25:35.902Z,28.60
2022-11-28T03:28:47.587Z,28.80
2022-11-28T03:31:23.497Z,28.80
2022-11-28T03:34:03.709Z,28.90
2022-11-28T03:36:48.852Z,29.00
2022-11-28T03:39:25.489Z,29.10
2022-11-28T03:42:12.428Z,29.20
2022-11-28T03:45:01.822Z,29.20
2022-11-28T03:47:38.850Z,29.30
2022-11-28T03:50:24.869Z,29.30
2022-11-28T03:53:04.053Z,29.30
2022-11-28T03:56:08.795Z,29.40
2022-11-28T03:58:57.703Z,29.50
2022-11-28T04:02:06.942Z,29.50
2022-11-28T04:05:17.312Z,29.60
2022-11-28T04:08:10.541Z,29.60
2022-11-28T04:10:48.377Z,29.70
2022-11-28T04:13:35.447Z,29.80
2022-11-28T04:16:43.752Z,29.80
2022-11-28T04:19:50.362Z,29.80
2022-11-28T04:22:31.285Z,29.90
2022-11-28T04:25:09.200Z,29.90
2022-11-28T04:27:45.437Z,30.00
2022-11-28T04:30:15.703Z,30.00
2022-11-28T04:32:53.327Z,30.00
2022-11-28T04:35:45.419Z,30.10
2022-11-28T04:38:15.820Z,30.20
2022-11-28T04:41:04.407Z,30.30
2022-11-28T04:43:47.428Z,30.40
2022-11-28T04:46:26.124Z,30.50
2022-11-28T04:48:55.645Z,30.50
2022-11-28T04:52:11.015Z,30.50
2022-11-28T04:54:49.955Z,30.50
2022-11-28T04:57:57.526Z,30.60
2022-11-28T05:00:29.010Z,30.60
2022-11-28T05:02:58.888Z,30.80
2022-11-28T05:05:30.953Z,31.00
2022-11-28T05:08:00.650Z,31.20
2022-11-28T05:10:31.669Z,31.40
2022-11-28T05:13:00.784Z,31.70
2022-11-28T05:15:29.915Z,31.80
2022-11-28T05:17:59.180Z,31.90
2022-11-28T05:20:29.255Z,32.10
2022-11-28T05:22:58.454Z,32.20
2022-11-28T05:25:27.652Z,32.30
2022-11-28T05:27:56.833Z,32.40
2022-11-28T05:30:25.899Z,32.50
2022-11-28T05:32:55.098Z,32.50
2022-11-28T05:35:24.453Z,32.50
2022-11-28T05:37:53.534Z,32.50
2022-11-28T05:40:22.680Z,32.40
2022-11-28T05:42:51.824Z,32.30
2022-11-28T05:45:21.098Z,32.20
2022-11-28T05:47:50.291Z,32.10
2022-11-28T05:50:20.726Z,32.10
2022-11-28T05:52:49.811Z,32.10
2022-11-28T05:55:19.043Z,32.20
2022-11-28T05:57:48.220Z,32.40
2022-11-28T06:00:17.997Z,32.50
2022-11-28T06:02:47.122Z,32.60
2022-11-28T06:05:41.024Z,32.70
2022-11-28T06:08:05.854Z,32.80
2022-11-28T06:10:36.853Z,32.90
2022-11-28T06:13:06.627Z,33.00
2022-11-28T06:15:38.286Z,33.10
2022-11-28T06:18:08.124Z,33.20
2022-11-28T06:20:37.428Z,33.30
2022-11-28T06:23:06.625Z,33.40
2022-11-28T06:25:35.974Z,33.40
2022-11-28T06:28:05.155Z,33.50
2022-11-28T06:30:34.354Z,33.40
2022-11-28T06:33:03.452Z,33.50
2022-11-28T06:35:32.568Z,33.30
2022-11-28T06:38:01.668Z,33.30
2022-11-28T06:40:31.028Z,33.10
2022-11-28T06:43:00.253Z,33.00
2022-11-28T06:45:29.376Z,33.00
2022-11-28T06:47:58.713Z,32.90
2022-11-28T06:50:28.205Z,32.80
2022-11-28T06:52:57.644Z,32.70
2022-11-28T06:55:26.810Z,32.60
2022-11-28T06:57:56.104Z,32.60
2022-11-28T07:00:27.636Z,32.60
2022-11-28T07:02:56.839Z,32.60
2022-11-28T07:05:29.798Z,32.50
2022-11-28T07:08:00.413Z,32.50
2022-11-28T07:10:31.176Z,32.40
2022-11-28T07:13:05.373Z,32.40
2022-11-28T07:15:35.143Z,32.30
2022-11-28T07:18:04.323Z,32.30
2022-11-28T07:20:33.521Z,32.30
2022-11-28T07:23:02.783Z,32.30
2022-11-28T07:25:32.032Z,32.20
2022-11-28T07:28:02.566Z,32.20
2022-11-28T07:30:31.785Z,32.20
2022-11-28T07:33:01.033Z,32.10
2022-11-28T07:35:30.312Z,32.10
2022-11-28T07:37:59.549Z,32.10
2022-11-28T07:40:28.953Z,32.00
2022-11-28T07:42:59.189Z,32.00
2022-11-28T07:45:47.122Z,31.90
2022-11-28T07:48:17.777Z,32.00
2022-11-28T07:50:47.796Z,31.90
2022-11-28T07:53:17.185Z,32.00
2022-11-28T07:55:46.336Z,32.10
2022-11-28T07:58:15.617Z,32.20
2022-11-28T08:00:45.113Z,32.30
2022-11-28T08:03:14.315Z,32.40
2022-11-28T08:05:50.317Z,32.60
2022-11-28T08:08:21.523Z,32.70
2022-11-28T08:10:51.553Z,32.70
2022-11-28T08:13:20.650Z,32.90
2022-11-28T08:15:49.746Z,33.00
2022-11-28T08:18:19.000Z,33.00
2022-11-28T08:20:48.208Z,33.10
2022-11-28T08:23:17.545Z,33.20
2022-11-28T08:25:46.726Z,33.20
2022-11-28T08:28:15.967Z,33.30
2022-11-28T08:30:45.159Z,33.30
2022-11-28T08:33:14.844Z,33.30
2022-11-28T08:35:43.929Z,33.40
2022-11-28T08:38:13.013Z,33.40
2022-11-28T08:40:42.171Z,33.50
2022-11-28T08:43:11.430Z,33.40
2022-11-28T08:45:40.823Z,33.50
2022-11-28T08:48:09.990Z,33.50
2022-11-28T08:50:42.531Z,33.50
2022-11-28T08:53:18.622Z,33.50
2022-11-28T08:55:48.075Z,33.50
2022-11-28T08:58:17.543Z,33.60
2022-11-28T09:00:47.555Z,33.60
2022-11-28T09:03:20.953Z,33.60
2022-11-28T09:05:50.653Z,33.60
2022-11-28T09:08:22.439Z,33.60
2022-11-28T09:10:52.126Z,33.60
2022-11-28T09:13:21.366Z,33.60
2022-11-28T09:15:53.736Z,33.60
2022-11-28T09:18:23.131Z,33.70
2022-11-28T09:20:58.044Z,33.70
2022-11-28T09:23:27.603Z,33.70
2022-11-28T09:25:57.782Z,33.70
2022-11-28T09:28:29.709Z,33.80
2022-11-28T09:31:10.399Z,33.70
2022-11-28T09:33:40.362Z,33.70
2022-11-28T09:36:25.166Z,33.70
2022-11-28T09:38:54.411Z,33.70
2022-11-28T09:42:05.101Z,33.60
2022-11-28T09:44:56.352Z,33.60
2022-11-28T09:47:33.140Z,33.60
2022-11-28T09:50:11.792Z,33.50
2022-11-28T09:53:02.662Z,33.50
2022-11-28T09:55:42.522Z,33.50
2022-11-28T09:58:28.073Z,33.40
2022-11-28T10:01:23.813Z,33.30
2022-11-28T10:04:10.737Z,33.20
2022-11-28T10:07:07.923Z,33.10
2022-11-28T10:09:40.642Z,33.00
2022-11-28T10:12:25.002Z,32.90
2022-11-28T10:15:21.534Z,32.80
2022-11-28T10:18:19.121Z,32.70
2022-11-28T10:20:53.895Z,32.50
2022-11-28T10:23:45.103Z,32.40
2022-11-28T10:26:39.745Z,32.20
2022-11-28T10:29:29.980Z,32.10
2022-11-28T10:32:06.375Z,32.00
2022-11-28T10:35:06.943Z,31.90
2022-11-28T10:37:40.369Z,31.80
2022-11-28T10:40:23.239Z,31.70
2022-11-28T10:43:36.386Z,31.60
2022-11-28T10:46:25.430Z,31.50
2022-11-28T10:49:11.551Z,31.40
2022-11-28T10:51:54.248Z,31.30
2022-11-28T10:55:10.668Z,31.20
2022-11-28T10:58:11.471Z,31.10
2022-11-28T11:00:41.896Z,31.00
2022-11-28T11:03:18.701Z,31.00
2022-11-28T11:05:48.198Z,30.90
2022-11-28T11:08:26.712Z,30.80
2022-11-28T11:11:06.132Z,30.80
2022-11-28T11:14:08.940Z,30.70
2022-11-28T11:17:00.618Z,30.70
2022-11-28T11:19:38.042Z,30.60
2022-11-28T11:22:29.390Z,30.50
2022-11-28T11:25:21.128Z,30.50
2022-11-28T11:27:59.055Z,30.50
2022-11-28T11:30:41.069Z,30.40
2022-11-28T11:33:18.841Z,30.40
2022-11-28T11:35:50.791Z,30.30
2022-11-28T11:38:22.831Z,30.30
2022-11-28T11:40:53.507Z,30.30
2022-11-28T11:43:36.779Z,30.30
2022-11-28T11:46:15.601Z,30.30
2022-11-28T11:48:51.717Z,30.30
2022-11-28T11:51:38.107Z,30.20
2022-11-28T11:54:22.526Z,30.20
2022-11-28T11:57:05.822Z,30.10
2022-11-28T11:59:52.004Z,30.20
2022-11-28T12:02:47.929Z,30.10
2022-11-28T12:05:59.021Z,30.00
2022-11-28T12:08:56.576Z,29.80
2022-11-28T12:11:46.691Z,29.70
2022-11-28T12:14:42.238Z,29.60
2022-11-28T12:17:48.944Z,29.50
2022-11-28T12:21:08.843Z,29.40
2022-11-28T12:24:14.813Z,29.40
2022-11-28T12:27:00.024Z,29.40
2022-11-28T12:29:41.000Z,29.40
2022-11-28T12:33:05.995Z,29.40
2022-11-28T12:36:13.607Z,29.40
2022-11-28T12:39:24.899Z,29.40
2022-11-28T12:42:16.979Z,29.30
2022-11-28T12:45:06.827Z,29.30
2022-11-28T12:48:04.130Z,29.30
2022-11-28T12:50:38.831Z,29.30
2022-11-28T12:54:02.385Z,29.30
2022-11-28T12:56:50.425Z,29.20
2022-11-28T12:59:25.222Z,29.20
2022-11-28T13:02:31.033Z,29.20
2022-11-28T13:05:19.523Z,29.10
2022-11-28T13:07:59.627Z,29.10
2022-11-28T13:10:52.958Z,29.10
2022-11-28T13:13:35.965Z,29.00
2022-11-28T13:16:43.078Z,29.00
2022-11-28T13:19:39.923Z,28.90
2022-11-28T13:23:03.390Z,28.90
2022-11-28T13:25:41.400Z,28.90
2022-11-28T13:28:19.719Z,28.80
2022-11-28T13:30:54.286Z,28.80
2022-11-28T13:33:57.074Z,28.80
2022-11-28T13:39:49.551Z,28.70
2022-11-28T13:43:02.197Z,28.70
2022-11-28T13:45:36.084Z,28.70
2022-11-28T13:49:12.639Z,28.60
2022-11-28T13:51:35.551Z,28.60
2022-11-28T13:54:22.564Z,28.60
2022-11-28T13:57:28.186Z,28.60
2022-11-28T14:00:24.819Z,28.50
2022-11-28T14:03:00.165Z,28.50
2022-11-28T14:05:41.896Z,28.50
2022-11-28T14:08:49.990Z,28.50
2022-11-28T14:12:18.883Z,28.50
2022-11-28T14:15:30.070Z,28.50
2022-11-28T14:18:56.957Z,28.40
2022-11-28T14:21:29.356Z,28.40
2022-11-28T14:24:45.888Z,28.30
2022-11-28T14:27:29.093Z,28.30
2022-11-28T14:30:00.125Z,28.30
2022-11-28T14:32:41.762Z,28.20
2022-11-28T14:35:51.757Z,28.20
2022-11-28T14:38:33.215Z,28.10
2022-11-28T14:41:12.703Z,28.00
2022-11-28T14:43:48.250Z,27.90
2022-11-28T14:46:29.740Z,27.90
2022-11-28T14:49:01.929Z,27.80
2022-11-28T14:51:49.517Z,27.70
2022-11-28T14:54:43.614Z,27.70
2022-11-28T14:57:36.195Z,27.60
2022-11-28T15:00:55.583Z,27.60
2022-11-28T15:04:05.234Z,27.50
2022-11-28T15:06:41.590Z,27.50
2022-11-28T15:09:32.937Z,27.50
2022-11-28T15:12:33.840Z,27.50
2022-11-28T15:15:05.000Z,27.40
2022-11-28T15:17:36.240Z,27.50
2022-11-28T15:20:44.244Z,27.50
2022-11-28T15:26:33.555Z,27.50
2022-11-28T15:29:33.492Z,27.50
2022-11-28T15:32:10.333Z,27.40
2022-11-28T15:35:07.719Z,27.40
2022-11-28T15:37:38.811Z,27.40
2022-11-28T15:40:09.386Z,27.40
2022-11-28T15:42:48.075Z,27.40
2022-11-28T15:45:51.146Z,27.30
2022-11-28T15:48:40.597Z,27.30
2022-11-28T15:51:23.380Z,27.20
2022-11-28T15:53:55.283Z,27.20
2022-11-28T15:56:25.224Z,27.20
2022-11-28T15:58:59.977Z,27.10
2022-11-28T16:01:31.638Z,27.10
2022-11-28T16:04:14.731Z,27.10
2022-11-28T16:06:52.578Z,27.10
2022-11-28T16:09:36.158Z,27.10
2022-11-28T16:12:13.597Z,27.10
2022-11-28T16:14:46.765Z,27.00
2022-11-28T16:17:34.042Z,27.00
2022-11-28T16:20:05.800Z,27.00
2022-11-28T16:22:38.678Z,27.00
2022-11-28T16:25:25.999Z,26.90
2022-11-28T16:27:58.408Z,26.80
2022-11-28T16:30:54.264Z,26.80
2022-11-28T16:34:00.052Z,26.80
2022-11-28T16:36:32.221Z,26.80
2022-11-28T16:39:22.231Z,26.70
2022-11-28T16:42:06.949Z,26.70
2022-11-28T16:44:36.376Z,26.80
2022-11-28T16:47:05.580Z,26.70
2022-11-28T16:50:16.689Z,26.70
2022-11-28T16:52:53.035Z,26.70
2022-11-28T16:55:34.635Z,26.80
2022-11-28T16:58:24.800Z,26.80
2022-11-28T17:01:03.590Z,26.70
2022-11-28T17:03:51.229Z,26.70
2022-11-28T17:06:37.976Z,26.70
2022-11-28T17:09:12.394Z,26.70
2022-11-28T17:12:08.470Z,26.80
2022-11-28T17:14:38.848Z,26.70
2022-11-28T17:17:19.987Z,26.80
2022-11-28T17:19:49.479Z,26.80
2022-11-28T17:22:43.937Z,26.80
2022-11-28T17:25:22.350Z,26.70
2022-11-28T17:27:51.072Z,26.70
2022-11-28T17:30:21.389Z,26.70
2022-11-28T17:32:52.963Z,26.70
2022-11-28T17:35:26.634Z,26.60
2022-11-28T17:37:55.752Z,26.60
2022-11-28T17:40:37.785Z,26.60
2022-11-28T17:43:08.462Z,26.60
2022-11-28T17:45:37.976Z,26.50
2022-11-28T17:48:08.865Z,26.50
2022-11-28T17:50:38.311Z,26.50
2022-11-28T17:53:07.429Z,26.40
2022-11-28T17:55:36.503Z,26.40
2022-11-28T17:58:05.745Z,26.40
2022-11-28T18:00:35.163Z,26.40
2022-11-28T18:03:04.476Z,26.40
2022-11-28T18:05:37.034Z,26.40
2022-11-28T18:08:06.848Z,26.40
2022-11-28T18:10:36.725Z,26.40
2022-11-28T18:13:07.385Z,26.40
2022-11-28T18:15:36.940Z,26.40
2022-11-28T18:18:07.038Z,26.40
2022-11-28T18:20:38.037Z,26.40
2022-11-28T18:23:07.303Z,26.40
2022-11-28T18:25:36.562Z,26.40
2022-11-28T18:28:05.949Z,26.40
2022-11-28T18:30:35.094Z,26.30
2022-11-28T18:33:04.326Z,26.30
2022-11-28T18:35:33.422Z,26.30
2022-11-28T18:38:02.500Z,26.30
2022-11-28T18:40:31.582Z,26.30
2022-11-28T18:43:01.228Z,26.20
2022-11-28T18:45:30.859Z,26.20
2022-11-28T18:48:00.558Z,26.20
2022-11-28T18:50:30.121Z,26.20
2022-11-28T18:52:59.237Z,26.20
2022-11-28T18:55:28.385Z,26.20
2022-11-28T18:57:57.509Z,26.20
2022-11-28T19:00:27.043Z,26.20
2022-11-28T19:02:57.134Z,26.20
2022-11-28T19:05:26.216Z,26.10
2022-11-28T19:07:57.778Z,26.20
2022-11-28T19:10:27.558Z,26.10
2022-11-28T19:12:56.750Z,26.10
2022-11-28T19:15:25.855Z,26.10
2022-11-28T19:17:55.826Z,26.10
2022-11-28T19:20:25.592Z,26.10
2022-11-28T19:22:54.709Z,26.10
2022-11-28T19:25:23.910Z,26.00
2022-11-28T19:27:52.973Z,26.00
2022-11-28T19:30:22.196Z,26.00
2022-11-28T19:32:51.299Z,26.00
2022-11-28T19:35:20.402Z,25.90
2022-11-28T19:37:49.492Z,25.90
2022-11-28T19:40:18.776Z,25.90
2022-11-28T19:42:47.957Z,25.90
2022-11-28T19:45:17.181Z,25.90
2022-11-28T19:47:49.486Z,25.90
2022-11-28T19:50:18.732Z,26.00
2022-11-28T19:52:47.857Z,26.00
2022-11-28T19:55:17.058Z,26.00
2022-11-28T19:57:46.242Z,25.90
2022-11-28T20:00:16.415Z,25.90
2022-11-28T20:02:45.561Z,25.90
2022-11-28T20:05:14.793Z,25.90
2022-11-28T20:07:44.690Z,25.90
2022-11-28T20:10:14.175Z,25.90
2022-11-28T20:12:43.304Z,25.90
2022-11-28T20:15:17.930Z,25.90
2022-11-28T20:17:47.618Z,25.90
2022-11-28T20:20:17.065Z,25.90
2022-11-28T20:22:46.262Z,25.90
2022-11-28T20:25:19.298Z,25.90
2022-11-28T20:27:50.038Z,25.90
2022-11-28T20:30:19.601Z,25.90
2022-11-28T20:32:48.675Z,25.90
2022-11-28T20:35:18.930Z,25.80
2022-11-28T20:37:48.005Z,25.90
2022-11-28T20:40:17.271Z,25.80
2022-11-28T20:42:46.437Z,25.80
2022-11-28T20:45:15.623Z,25.80
2022-11-28T20:47:49.635Z,25.80
2022-11-28T20:50:19.077Z,25.70
2022-11-28T20:52:48.151Z,25.70
2022-11-28T20:55:17.350Z,25.70
2022-11-28T20:57:46.752Z,25.70
2022-11-28T21:00:16.561Z,25.70
2022-11-28T21:02:47.160Z,25.60
2022-11-28T21:05:16.351Z,25.70
2022-11-28T21:07:46.728Z,25.70
2022-11-28T21:10:15.992Z,25.60
2022-11-28T21:12:45.156Z,25.70
2022-11-28T21:15:14.509Z,25.60
2022-11-28T21:17:43.690Z,25.70
2022-11-28T21:20:13.365Z,25.70
2022-11-28T21:22:42.577Z,25.60
2022-11-28T21:25:11.832Z,25.70
2022-11-28T21:27:41.026Z,25.70
2022-11-28T21:30:11.069Z,25.70
2022-11-28T21:32:40.323Z,25.70
2022-11-28T21:35:10.064Z,25.70
2022-11-28T21:37:39.204Z,25.80
2022-11-28T21:40:09.389Z,25.70
2022-11-28T21:42:38.532Z,25.70
2022-11-28T21:45:08.494Z,25.80
2022-11-28T21:47:37.708Z,25.80
2022-11-28T21:50:07.644Z,25.80
2022-11-28T21:52:37.049Z,25.80
2022-11-28T21:55:06.704Z,25.80
2022-11-28T21:57:36.260Z,25.80
2022-11-28T22:00:06.845Z,25.70
2022-11-28T22:02:36.115Z,25.80
2022-11-28T22:05:05.613Z,25.80
2022-11-28T22:07:37.903Z,25.70
2022-11-28T22:10:08.192Z,25.80
2022-11-28T22:12:37.440Z,25.80
2022-11-28T22:17:52.855Z,25.70
2022-11-28T22:20:22.115Z,25.70
2022-11-28T22:22:51.644Z,25.70
2022-11-28T22:25:20.809Z,25.70
2022-11-28T22:27:49.964Z,25.70
2022-11-28T22:30:19.259Z,25.60
2022-11-28T22:32:48.433Z,25.60
2022-11-28T22:35:17.783Z,25.60
2022-11-28T22:37:46.996Z,25.50
2022-11-28T22:40:17.012Z,25.50
2022-11-28T22:42:46.293Z,25.60
2022-11-28T22:45:15.867Z,25.60
2022-11-28T22:47:45.031Z,25.60
2022-11-28T22:50:15.044Z,25.60
2022-11-28T22:52:45.174Z,25.60
2022-11-28T22:55:14.550Z,25.60
2022-11-28T22:57:43.757Z,25.60
2022-11-28T23:00:14.189Z,25.60
2022-11-28T23:02:43.487Z,25.60
2022-11-28T23:05:12.716Z,25.50
2022-11-28T23:07:42.052Z,25.50
2022-11-28T23:10:11.912Z,25.50
2022-11-28T23:12:42.469Z,25.50
2022-11-28T23:15:12.171Z,25.50
2022-11-28T23:17:42.072Z,25.50
2022-11-28T23:20:11.810Z,25.50
2022-11-28T23:22:40.987Z,25.50
2022-11-28T23:25:10.617Z,25.40
2022-11-28T23:27:39.811Z,25.50
2022-11-28T23:30:09.958Z,25.40
2022-11-28T23:32:39.178Z,25.40
2022-11-28T23:35:08.777Z,25.40
2022-11-28T23:37:41.161Z,25.40
2022-11-28T23:40:11.131Z,25.40
2022-11-28T23:42:40.308Z,25.40
2022-11-28T23:45:10.695Z,25.40
2022-11-28T23:47:39.852Z,25.40
2022-11-28T23:50:10.170Z,25.40
2022-11-28T23:52:39.342Z,25.40
2022-11-28T23:55:09.223Z,25.40
2022-11-28T23:57:38.446Z,25.40
